createdAt,value
2023-04-11T00:00:47.346Z,9.89
2023-04-11T00:01:47.356Z,9.85
2023-04-11T00:02:47.431Z,9.67
2023-04-11T00:03:47.433Z,9.58
2023-04-11T00:04:47.353Z,9.56
2023-04-11T00:05:47.266Z,9.62
2023-04-11T00:06:47.229Z,9.63
2023-04-11T00:07:47.206Z,9.59
2023-04-11T00:08:47.204Z,9.56
2023-04-11T00:09:47.160Z,9.60
2023-04-11T00:10:47.160Z,9.56
2023-04-11T00:11:47.122Z,9.49
2023-04-11T00:12:47.141Z,9.44
2023-04-11T00:13:47.104Z,9.40
2023-04-11T00:14:47.095Z,9.42
2023-04-11T00:15:47.088Z,9.35
2023-04-11T00:16:47.131Z,9.38
2023-04-11T00:17:47.078Z,9.41
2023-04-11T00:18:47.012Z,9.50
2023-04-11T00:19:47.062Z,9.42
2023-04-11T00:20:47.007Z,9.41
2023-04-11T00:21:46.960Z,9.38
2023-04-11T00:22:46.967Z,9.40
2023-04-11T00:23:46.921Z,9.45
2023-04-11T00:24:46.906Z,9.42
2023-04-11T00:25:46.923Z,9.49
2023-04-11T00:26:46.872Z,9.63
2023-04-11T00:27:46.993Z,9.58
2023-04-11T00:28:46.851Z,9.67
2023-04-11T00:29:46.814Z,9.71
2023-04-11T00:30:46.835Z,9.67
2023-04-11T00:31:46.820Z,9.68
2023-04-11T00:32:46.848Z,9.78
2023-04-11T00:33:46.757Z,9.70
2023-04-11T00:34:46.740Z,9.71
2023-04-11T00:35:46.882Z,9.65
2023-04-11T00:36:46.725Z,9.83
2023-04-11T00:37:46.692Z,9.78
2023-04-11T00:38:46.662Z,9.70
2023-04-11T00:39:46.641Z,9.75
2023-04-11T00:40:46.676Z,9.73
2023-04-11T00:41:46.605Z,9.60
2023-04-11T00:42:46.591Z,9.62
2023-04-11T00:43:46.616Z,9.65
2023-04-11T00:44:46.763Z,9.68
2023-04-11T00:45:46.592Z,9.65
2023-04-11T00:46:46.524Z,9.67
2023-04-11T00:47:46.589Z,9.70
2023-04-11T00:48:46.505Z,9.67
2023-04-11T00:49:46.613Z,9.56
2023-04-11T00:50:46.492Z,9.67
2023-04-11T00:51:46.444Z,9.68
2023-04-11T00:52:46.415Z,9.63
2023-04-11T00:53:46.403Z,9.65
2023-04-11T00:54:46.397Z,9.60
2023-04-11T00:55:46.395Z,9.52
2023-04-11T00:56:46.353Z,9.60
2023-04-11T00:57:46.347Z,9.60
2023-04-11T00:58:46.322Z,9.67
2023-04-11T00:59:46.304Z,9.56
2023-04-11T01:00:46.357Z,9.65
2023-04-11T01:01:46.428Z,9.49
2023-04-11T01:02:46.357Z,9.45
2023-04-11T01:03:46.327Z,9.35
2023-04-11T01:04:46.225Z,9.35
2023-04-11T01:05:47.236Z,9.27
2023-04-11T01:06:46.195Z,9.26
2023-04-11T01:07:46.170Z,9.26
2023-04-11T01:08:46.172Z,9.26
2023-04-11T01:09:46.139Z,9.20
2023-04-11T01:10:46.163Z,9.26
2023-04-11T01:11:46.102Z,9.19
2023-04-11T01:12:46.112Z,9.16
2023-04-11T01:13:46.075Z,9.24
2023-04-11T01:14:46.069Z,9.30
2023-04-11T01:15:46.054Z,9.32
2023-04-11T01:16:46.066Z,9.24
2023-04-11T01:17:46.038Z,9.30
2023-04-11T01:18:45.987Z,9.31
2023-04-11T01:19:45.987Z,9.24
2023-04-11T01:20:45.962Z,9.30
2023-04-11T01:21:45.964Z,9.23
2023-04-11T01:22:45.911Z,9.32
2023-04-11T01:23:46.366Z,9.26
2023-04-11T01:24:45.883Z,9.35
2023-04-11T01:25:45.860Z,9.37
2023-04-11T01:26:45.877Z,9.40
2023-04-11T01:27:45.842Z,9.35
2023-04-11T01:28:45.804Z,9.31
2023-04-11T01:29:45.799Z,9.30
2023-04-11T01:30:45.825Z,9.40
2023-04-11T01:31:45.802Z,9.34
2023-04-11T01:32:45.810Z,9.40
2023-04-11T01:33:45.729Z,9.44
2023-04-11T01:34:45.732Z,9.44
2023-04-11T01:35:45.720Z,9.44
2023-04-11T01:36:45.703Z,9.40
2023-04-11T01:37:45.666Z,9.40
2023-04-11T01:38:45.645Z,9.50
2023-04-11T01:39:45.622Z,9.45
2023-04-11T01:40:45.605Z,9.37
2023-04-11T01:41:45.632Z,9.35
2023-04-11T01:42:45.571Z,9.35
2023-04-11T01:43:45.591Z,9.31
2023-04-11T01:44:45.533Z,9.32
2023-04-11T01:45:45.517Z,9.34
2023-04-11T01:46:45.553Z,9.24
2023-04-11T01:47:45.535Z,9.15
2023-04-11T01:48:45.700Z,9.10
2023-04-11T01:49:45.472Z,9.06
2023-04-11T01:50:45.432Z,9.15
2023-04-11T01:51:45.449Z,9.16
2023-04-11T01:52:45.398Z,9.16
2023-04-11T01:53:45.389Z,9.06
2023-04-11T01:54:45.363Z,9.10
2023-04-11T01:55:45.374Z,9.13
2023-04-11T01:56:45.364Z,9.12
2023-04-11T01:57:45.310Z,9.04
2023-04-11T01:58:45.310Z,8.96
2023-04-11T01:59:45.282Z,8.94
2023-04-11T02:00:45.258Z,8.91
2023-04-11T02:01:45.362Z,8.98
2023-04-11T02:02:45.331Z,8.98
2023-04-11T02:03:45.290Z,8.89
2023-04-11T02:04:45.204Z,8.98
2023-04-11T02:05:45.182Z,8.97
2023-04-11T02:06:45.195Z,8.94
2023-04-11T02:07:45.225Z,9.06
2023-04-11T02:08:45.137Z,9.15
2023-04-11T02:09:45.110Z,9.04
2023-04-11T02:10:45.096Z,9.01
2023-04-11T02:11:45.101Z,8.97
2023-04-11T02:12:45.077Z,9.00
2023-04-11T02:13:45.044Z,9.00
2023-04-11T02:14:45.022Z,9.01
2023-04-11T02:15:45.020Z,8.97
2023-04-11T02:16:45.008Z,9.06
2023-04-11T02:17:45.975Z,9.03
2023-04-11T02:18:44.964Z,9.01
2023-04-11T02:19:44.952Z,9.12
2023-04-11T02:20:44.935Z,9.08
2023-04-11T02:21:44.928Z,8.97
2023-04-11T02:22:44.877Z,8.89
2023-04-11T02:23:44.879Z,8.86
2023-04-11T02:24:44.840Z,8.80
2023-04-11T02:25:44.841Z,8.82
2023-04-11T02:26:44.860Z,8.70
2023-04-11T02:27:44.816Z,8.80
2023-04-11T02:28:44.778Z,8.83
2023-04-11T02:29:44.771Z,8.85
2023-04-11T02:30:44.892Z,8.86
2023-04-11T02:31:44.805Z,8.86
2023-04-11T02:32:44.742Z,8.88
2023-04-11T02:33:44.693Z,8.85
2023-04-11T02:34:44.699Z,8.67
2023-04-11T02:35:44.690Z,8.68
2023-04-11T02:36:44.669Z,8.58
2023-04-11T02:37:44.624Z,8.65
2023-04-11T02:38:44.615Z,8.75
2023-04-11T02:39:44.583Z,8.64
2023-04-11T02:40:44.576Z,8.75
2023-04-11T02:41:44.592Z,8.70
2023-04-11T02:42:44.548Z,8.76
2023-04-11T02:43:44.520Z,8.64
2023-04-11T02:44:44.530Z,8.71
2023-04-11T02:45:44.485Z,8.70
2023-04-11T02:46:44.526Z,8.65
2023-04-11T02:47:44.474Z,8.54
2023-04-11T02:48:44.449Z,8.57
2023-04-11T02:49:44.422Z,8.57
2023-04-11T02:50:44.406Z,8.58
2023-04-11T02:51:44.416Z,8.60
2023-04-11T02:52:44.930Z,8.71
2023-04-11T02:53:44.345Z,8.65
2023-04-11T02:54:44.325Z,8.70
2023-04-11T02:55:44.324Z,8.65
2023-04-11T02:56:44.349Z,8.65
2023-04-11T02:57:44.291Z,8.63
2023-04-11T02:58:44.259Z,8.68
2023-04-11T02:59:44.261Z,8.54
2023-04-11T03:00:44.243Z,8.58
2023-04-11T03:01:44.289Z,8.65
2023-04-11T03:02:44.286Z,8.67
2023-04-11T03:03:44.303Z,8.65
2023-04-11T03:04:44.153Z,8.71
2023-04-11T03:05:44.140Z,8.64
2023-04-11T03:06:44.151Z,8.68
2023-04-11T03:07:45.108Z,8.68
2023-04-11T03:08:44.085Z,8.68
2023-04-11T03:09:44.079Z,8.73
2023-04-11T03:10:44.060Z,8.71
2023-04-11T03:11:45.603Z,8.61
2023-04-11T03:12:44.025Z,8.71
2023-04-11T03:13:44.024Z,8.67
2023-04-11T03:14:43.998Z,8.67
2023-04-11T03:15:44.010Z,8.75
2023-04-11T03:16:44.040Z,8.73
2023-04-11T03:17:43.975Z,8.71
2023-04-11T03:18:43.949Z,8.61
2023-04-11T03:19:43.896Z,8.63
2023-04-11T03:20:43.910Z,8.55
2023-04-11T03:21:43.898Z,8.61
2023-04-11T03:22:43.853Z,8.55
2023-04-11T03:23:43.881Z,8.49
2023-04-11T03:24:43.813Z,8.65
2023-04-11T03:25:43.792Z,8.55
2023-04-11T03:26:43.822Z,8.65
2023-04-11T03:27:43.811Z,8.61
2023-04-11T03:28:43.743Z,8.55
2023-04-11T03:29:43.739Z,8.60
2023-04-11T03:30:43.727Z,8.61
2023-04-11T03:31:43.793Z,8.68
2023-04-11T03:32:43.735Z,8.71
2023-04-11T03:33:43.667Z,8.65
2023-04-11T03:34:44.653Z,8.73
2023-04-11T03:35:43.680Z,8.67
2023-04-11T03:36:43.653Z,8.67
2023-04-11T03:37:43.609Z,8.73
2023-04-11T03:38:43.575Z,8.68
2023-04-11T03:39:43.573Z,8.71
2023-04-11T03:40:43.548Z,8.67
2023-04-11T03:41:43.572Z,8.61
2023-04-11T03:42:43.508Z,8.71
2023-04-11T03:43:43.495Z,8.60
2023-04-11T03:44:43.492Z,8.73
2023-04-11T03:45:43.490Z,8.78
2023-04-11T03:46:43.554Z,8.75
2023-04-11T03:47:43.476Z,8.78
2023-04-11T03:48:43.420Z,8.80
2023-04-11T03:49:43.387Z,8.80
2023-04-11T03:50:43.395Z,8.86
2023-04-11T03:51:43.394Z,8.80
2023-04-11T03:52:43.337Z,8.70
2023-04-11T03:53:43.313Z,8.83
2023-04-11T03:54:44.460Z,8.82
2023-04-11T03:55:43.280Z,8.73
2023-04-11T03:56:43.293Z,8.78
2023-04-11T03:57:43.250Z,8.73
2023-04-11T03:58:43.236Z,8.71
2023-04-11T03:59:43.211Z,8.61
2023-04-11T04:00:43.213Z,8.65
2023-04-11T04:02:16.980Z,8.58
2023-04-11T04:02:43.365Z,8.58
2023-04-11T04:03:43.315Z,8.52
2023-04-11T04:04:43.253Z,8.49
2023-04-11T04:05:43.148Z,8.34
2023-04-11T04:06:43.139Z,8.39
2023-04-11T04:07:43.090Z,8.36
2023-04-11T04:08:43.073Z,8.36
2023-04-11T04:09:43.052Z,8.24
2023-04-11T04:10:43.036Z,8.36
2023-04-11T04:11:43.070Z,8.22
2023-04-11T04:12:43.165Z,8.20
2023-04-11T04:13:42.988Z,8.22
2023-04-11T04:14:42.994Z,8.12
2023-04-11T04:15:42.947Z,8.09
2023-04-11T04:16:43.006Z,8.09
2023-04-11T04:17:42.961Z,8.09
2023-04-11T04:18:42.938Z,8.06
2023-04-11T04:19:42.897Z,8.06
2023-04-11T04:20:42.877Z,7.95
2023-04-11T04:21:42.886Z,8.00
2023-04-11T04:22:42.838Z,8.03
2023-04-11T04:23:42.814Z,8.00
2023-04-11T04:24:42.790Z,7.88
2023-04-11T04:25:42.794Z,8.00
2023-04-11T04:26:42.812Z,7.95
2023-04-11T04:27:42.767Z,7.99
2023-04-11T04:28:42.726Z,7.94
2023-04-11T04:29:42.729Z,7.92
2023-04-11T04:30:42.698Z,7.84
2023-04-11T04:31:42.765Z,7.86
2023-04-11T04:32:42.693Z,7.94
2023-04-11T04:33:42.661Z,7.86
2023-04-11T04:34:42.624Z,7.94
2023-04-11T04:35:42.683Z,7.81
2023-04-11T04:36:42.629Z,7.91
2023-04-11T04:37:42.619Z,7.84
2023-04-11T04:38:42.585Z,7.85
2023-04-11T04:39:42.560Z,7.91
2023-04-11T04:40:42.543Z,7.89
2023-04-11T04:41:42.566Z,7.85
2023-04-11T04:42:42.500Z,7.96
2023-04-11T04:43:42.485Z,7.91
2023-04-11T04:44:42.495Z,7.89
2023-04-11T04:45:42.522Z,7.88
2023-04-11T04:46:42.501Z,7.86
2023-04-11T04:47:42.534Z,7.82
2023-04-11T04:48:42.398Z,7.84
2023-04-11T04:49:42.469Z,7.79
2023-04-11T04:50:42.380Z,7.82
2023-04-11T04:51:42.353Z,7.95
2023-04-11T04:52:42.382Z,8.06
2023-04-11T04:53:42.304Z,7.96
2023-04-11T04:54:42.296Z,7.99
2023-04-11T04:55:42.283Z,8.02
2023-04-11T04:56:42.251Z,8.12
2023-04-11T04:57:42.280Z,8.17
2023-04-11T04:58:42.257Z,8.09
2023-04-11T04:59:42.224Z,8.13
2023-04-11T05:00:42.188Z,8.10
2023-04-11T05:01:42.316Z,8.09
2023-04-11T05:02:42.289Z,7.99
2023-04-11T05:03:42.171Z,8.03
2023-04-11T05:04:42.155Z,8.06
2023-04-11T05:05:42.128Z,8.07
2023-04-11T05:06:42.075Z,8.02
2023-04-11T05:07:42.100Z,8.07
2023-04-11T05:08:42.047Z,8.22
2023-04-11T05:09:42.044Z,8.18
2023-04-11T05:10:42.023Z,8.06
2023-04-11T05:11:41.997Z,8.13
2023-04-11T05:12:42.001Z,8.10
2023-04-11T05:13:41.964Z,8.07
2023-04-11T05:14:42.979Z,8.20
2023-04-11T05:15:41.935Z,8.18
2023-04-11T05:16:41.959Z,8.28
2023-04-11T05:17:41.952Z,8.29
2023-04-11T05:18:41.887Z,8.25
2023-04-11T05:19:41.854Z,8.27
2023-04-11T05:20:41.852Z,8.24
2023-04-11T05:21:41.819Z,8.28
2023-04-11T05:22:41.840Z,8.21
2023-04-11T05:23:41.796Z,8.18
2023-04-11T05:24:41.783Z,8.34
2023-04-11T05:25:41.761Z,8.27
2023-04-11T05:26:41.744Z,8.28
2023-04-11T05:27:41.757Z,8.24
2023-04-11T05:28:41.765Z,8.36
2023-04-11T05:29:41.738Z,8.34
2023-04-11T05:30:41.695Z,8.46
2023-04-11T05:31:41.669Z,8.49
2023-04-11T05:32:41.730Z,8.45
2023-04-11T05:33:41.637Z,8.47
2023-04-11T05:34:41.633Z,8.54
2023-04-11T05:35:41.615Z,8.47
2023-04-11T05:36:41.578Z,8.57
2023-04-11T05:37:41.583Z,8.61
2023-04-11T05:38:41.546Z,8.39
2023-04-11T05:39:41.525Z,8.45
2023-04-11T05:40:41.531Z,8.37
2023-04-11T05:41:41.497Z,8.49
2023-04-11T05:42:41.504Z,8.58
2023-04-11T05:43:41.484Z,8.60
2023-04-11T05:44:41.486Z,8.71
2023-04-11T05:45:41.465Z,8.80
2023-04-11T05:46:41.438Z,8.79
2023-04-11T05:47:41.463Z,9.42
2023-04-11T05:48:41.412Z,10.13
2023-04-11T05:49:41.365Z,11.17
2023-04-11T05:50:41.338Z,11.06
2023-04-11T05:51:41.360Z,10.66
2023-04-11T05:52:41.329Z,10.68
2023-04-11T05:53:41.292Z,11.48
2023-04-11T05:54:41.275Z,11.85
2023-04-11T05:55:41.235Z,12.80
2023-04-11T05:56:42.261Z,13.38
2023-04-11T05:57:41.262Z,13.72
2023-04-11T05:58:42.206Z,13.46
2023-04-11T05:59:41.194Z,14.16
2023-04-11T06:00:41.167Z,14.64
2023-04-11T06:01:41.203Z,15.03
2023-04-11T06:02:41.294Z,15.40
2023-04-11T06:03:41.226Z,15.23
2023-04-11T06:04:41.338Z,15.66
2023-04-11T06:05:41.086Z,16.14
2023-04-11T06:06:41.063Z,16.80
2023-04-11T06:07:41.094Z,17.12
2023-04-11T06:08:41.043Z,17.60
2023-04-11T06:09:41.019Z,17.95
2023-04-11T06:10:41.008Z,18.41
2023-04-11T06:11:41.099Z,18.66
2023-04-11T06:12:41.064Z,18.64
2023-04-11T06:13:40.950Z,18.51
2023-04-11T06:14:40.956Z,18.50
2023-04-11T06:15:40.938Z,18.90
2023-04-11T06:16:40.912Z,19.30
2023-04-11T06:17:40.926Z,19.32
2023-04-11T06:18:40.875Z,19.67
2023-04-11T06:19:40.886Z,19.79
2023-04-11T06:20:40.830Z,20.10
2023-04-11T06:21:40.836Z,19.92
2023-04-11T06:22:40.822Z,19.01
2023-04-11T06:23:40.800Z,17.87
2023-04-11T06:24:40.775Z,16.96
2023-04-11T06:25:40.760Z,15.92
2023-04-11T06:26:40.736Z,15.25
2023-04-11T06:27:40.777Z,14.75
2023-04-11T06:28:40.689Z,14.26
2023-04-11T06:29:40.683Z,13.68
2023-04-11T06:30:40.660Z,13.31
2023-04-11T06:31:40.673Z,13.01
2023-04-11T06:32:40.686Z,14.39
2023-04-11T06:33:40.610Z,15.41
2023-04-11T06:34:40.601Z,16.18
2023-04-11T06:35:40.606Z,17.03
2023-04-11T06:36:40.572Z,17.65
2023-04-11T06:37:40.571Z,18.42
2023-04-11T06:38:40.530Z,18.60
2023-04-11T06:39:40.515Z,17.77
2023-04-11T06:40:40.517Z,17.09
2023-04-11T06:41:40.475Z,16.57
2023-04-11T06:42:40.507Z,16.13
2023-04-11T06:43:40.449Z,15.62
2023-04-11T06:44:40.464Z,14.94
2023-04-11T06:45:40.407Z,14.44
2023-04-11T06:46:40.413Z,14.04
2023-04-11T06:47:40.472Z,13.61
2023-04-11T06:48:40.379Z,13.29
2023-04-11T06:49:40.332Z,13.14
2023-04-11T06:50:40.327Z,12.96
2023-04-11T06:51:40.311Z,12.71
2023-04-11T06:52:40.333Z,12.46
2023-04-11T06:53:40.272Z,12.29
2023-04-11T06:54:40.263Z,12.04
2023-04-11T06:55:40.722Z,11.88
2023-04-11T06:56:40.227Z,11.88
2023-04-11T06:57:40.244Z,11.64
2023-04-11T06:58:40.201Z,11.63
2023-04-11T06:59:40.185Z,11.45
2023-04-11T07:00:40.156Z,11.20
2023-04-11T07:01:40.273Z,10.87
2023-04-11T07:02:40.311Z,10.68
2023-04-11T07:03:40.333Z,10.57
2023-04-11T07:04:40.177Z,10.42
2023-04-11T07:05:40.076Z,10.18
2023-04-11T07:06:40.089Z,9.98
2023-04-11T07:07:41.071Z,9.85
2023-04-11T07:08:40.120Z,9.70
2023-04-11T07:09:40.096Z,9.41
2023-04-11T07:10:40.000Z,9.42
2023-04-11T07:11:39.986Z,9.41
2023-04-11T07:12:40.077Z,9.22
2023-04-11T07:13:40.944Z,9.06
2023-04-11T07:14:39.978Z,9.42
2023-04-11T07:15:39.931Z,10.60
2023-04-11T07:16:40.049Z,12.01
2023-04-11T07:17:40.930Z,13.25
2023-04-11T07:18:39.854Z,14.38
2023-04-11T07:19:39.829Z,15.43
2023-04-11T07:20:39.822Z,15.96
2023-04-11T07:21:39.824Z,15.81
2023-04-11T07:22:39.808Z,15.58
2023-04-11T07:23:39.769Z,15.11
2023-04-11T07:24:39.766Z,14.56
2023-04-11T07:25:39.786Z,14.19
2023-04-11T07:26:39.717Z,13.57
2023-04-11T07:27:39.724Z,13.25
2023-04-11T07:28:39.679Z,12.92
2023-04-11T07:29:39.675Z,12.46
2023-04-11T07:30:39.695Z,12.31
2023-04-11T07:31:39.697Z,12.19
2023-04-11T07:32:39.652Z,12.13
2023-04-11T07:33:39.648Z,11.98
2023-04-11T07:34:39.584Z,11.87
2023-04-11T07:35:39.626Z,11.74
2023-04-11T07:36:39.595Z,11.67
2023-04-11T07:37:39.544Z,11.90
2023-04-11T07:38:39.524Z,12.87
2023-04-11T07:39:39.496Z,13.03
2023-04-11T07:40:39.542Z,13.27
2023-04-11T07:41:39.501Z,13.16
2023-04-11T07:42:39.451Z,13.13
2023-04-11T07:43:39.435Z,13.10
2023-04-11T07:44:39.423Z,13.10
2023-04-11T07:45:39.568Z,12.80
2023-04-11T07:46:39.417Z,12.84
2023-04-11T07:47:39.522Z,12.67
2023-04-11T07:48:39.399Z,13.03
2023-04-11T07:49:39.334Z,13.44
2023-04-11T07:50:39.360Z,13.46
2023-04-11T07:51:39.427Z,14.30
2023-04-11T07:52:39.319Z,15.04
2023-04-11T07:53:39.288Z,14.87
2023-04-11T07:54:39.258Z,14.79
2023-04-11T07:55:39.232Z,14.46
2023-04-11T07:56:39.370Z,13.99
2023-04-11T07:57:39.192Z,13.65
2023-04-11T07:58:39.201Z,13.38
2023-04-11T07:59:39.176Z,13.21
2023-04-11T08:00:39.142Z,13.22
2023-04-11T08:01:39.181Z,13.03
2023-04-11T08:02:39.249Z,12.88
2023-04-11T08:03:39.289Z,12.77
2023-04-11T08:04:39.154Z,12.58
2023-04-11T08:05:39.096Z,12.41
2023-04-11T08:06:39.095Z,12.21
2023-04-11T08:07:39.034Z,12.08
2023-04-11T08:08:39.054Z,11.93
2023-04-11T08:09:39.011Z,11.81
2023-04-11T08:10:38.984Z,11.66
2023-04-11T08:11:39.024Z,11.62
2023-04-11T08:12:38.982Z,11.53
2023-04-11T08:13:38.923Z,11.51
2023-04-11T08:14:38.911Z,11.44
2023-04-11T08:15:38.920Z,12.05
2023-04-11T08:16:38.980Z,12.48
2023-04-11T08:17:39.034Z,13.94
2023-04-11T08:18:38.891Z,14.57
2023-04-11T08:19:38.889Z,15.22
2023-04-11T08:20:38.829Z,14.91
2023-04-11T08:21:38.849Z,15.04
2023-04-11T08:22:38.805Z,15.56
2023-04-11T08:23:38.818Z,16.17
2023-04-11T08:24:38.749Z,15.85
2023-04-11T08:25:39.038Z,15.86
2023-04-11T08:26:38.747Z,15.76
2023-04-11T08:27:38.693Z,16.14
2023-04-11T08:28:39.971Z,16.63
2023-04-11T08:29:38.663Z,16.03
2023-04-11T08:30:38.679Z,15.40
2023-04-11T08:31:38.659Z,14.59
2023-04-11T08:32:38.632Z,14.21
2023-04-11T08:33:38.648Z,14.05
2023-04-11T08:34:38.591Z,14.12
2023-04-11T08:35:38.605Z,13.93
2023-04-11T08:36:38.567Z,13.71
2023-04-11T08:37:38.513Z,13.65
2023-04-11T08:38:38.653Z,13.72
2023-04-11T08:39:38.518Z,13.62
2023-04-11T08:40:38.467Z,13.59
2023-04-11T08:41:38.504Z,13.36
2023-04-11T08:42:38.435Z,13.41
2023-04-11T08:43:38.413Z,14.45
2023-04-11T08:44:38.403Z,13.96
2023-04-11T08:45:38.409Z,15.09
2023-04-11T08:46:38.474Z,16.73
2023-04-11T08:47:38.349Z,17.74
2023-04-11T08:48:38.331Z,18.60
2023-04-11T08:49:38.335Z,19.46
2023-04-11T08:50:38.303Z,20.79
2023-04-11T08:51:38.292Z,20.61
2023-04-11T08:52:38.324Z,20.02
2023-04-11T08:53:38.247Z,19.97
2023-04-11T08:54:39.236Z,20.41
2023-04-11T08:55:38.222Z,21.33
2023-04-11T08:56:38.232Z,21.59
2023-04-11T08:57:38.220Z,20.69
2023-04-11T08:58:38.148Z,20.87
2023-04-11T08:59:38.145Z,21.36
2023-04-11T09:00:38.137Z,22.14
2023-04-11T09:01:38.195Z,21.73
2023-04-11T09:02:38.110Z,20.88
2023-04-11T09:03:38.134Z,20.63
2023-04-11T09:04:38.079Z,21.73
2023-04-11T09:05:38.130Z,21.00
2023-04-11T09:06:38.055Z,21.68
2023-04-11T09:07:37.991Z,21.58
2023-04-11T09:08:38.008Z,20.69
2023-04-11T09:09:37.965Z,19.57
2023-04-11T09:10:37.989Z,18.71
2023-04-11T09:11:37.994Z,19.78
2023-04-11T09:12:37.948Z,20.20
2023-04-11T09:13:37.894Z,20.64
2023-04-11T09:14:37.925Z,21.19
2023-04-11T09:15:37.913Z,19.98
2023-04-11T09:16:37.926Z,19.20
2023-04-11T09:17:37.927Z,18.09
2023-04-11T09:18:37.835Z,18.54
2023-04-11T09:19:37.803Z,19.25
2023-04-11T09:20:37.797Z,19.95
2023-04-11T09:21:37.804Z,20.46
2023-04-11T09:22:37.782Z,21.37
2023-04-11T09:23:37.770Z,22.09
2023-04-11T09:24:37.724Z,22.81
2023-04-11T09:25:37.709Z,23.53
2023-04-11T09:26:37.717Z,22.44
2023-04-11T09:27:37.687Z,22.11
2023-04-11T09:28:37.656Z,22.67
2023-04-11T09:29:37.638Z,23.16
2023-04-11T09:30:37.647Z,23.25
2023-04-11T09:31:37.696Z,23.23
2023-04-11T09:32:37.636Z,23.09
2023-04-11T09:33:37.577Z,23.81
2023-04-11T09:34:37.631Z,23.47
2023-04-11T09:35:37.582Z,23.86
2023-04-11T09:36:37.572Z,23.45
2023-04-11T09:37:37.532Z,23.50
2023-04-11T09:38:37.505Z,23.14
2023-04-11T09:39:37.508Z,23.34
2023-04-11T09:40:37.474Z,23.67
2023-04-11T09:41:37.486Z,23.84
2023-04-11T09:42:37.476Z,23.89
2023-04-11T09:43:37.441Z,23.50
2023-04-11T09:44:37.453Z,23.81
2023-04-11T09:45:47.760Z,24.55
2023-04-11T09:46:39.456Z,25.20
2023-04-11T09:47:37.424Z,25.49
2023-04-11T09:48:46.614Z,25.56
2023-04-11T09:49:39.357Z,25.64
2023-04-11T09:50:37.371Z,25.71
2023-04-11T09:51:37.437Z,25.36
2023-04-11T09:52:37.326Z,25.04
2023-04-11T09:53:37.286Z,24.26
2023-04-11T09:54:37.307Z,23.62
2023-04-11T09:55:37.269Z,22.91
2023-04-11T09:56:37.278Z,23.71
2023-04-11T09:57:37.316Z,24.08
2023-04-11T09:58:37.238Z,24.33
2023-04-11T09:59:37.200Z,24.79
2023-04-11T10:00:37.171Z,24.70
2023-04-11T10:02:09.117Z,24.19
2023-04-11T10:02:37.244Z,23.84
2023-04-11T10:03:37.172Z,23.52
2023-04-11T10:04:37.139Z,22.46
2023-04-11T10:05:37.090Z,21.77
2023-04-11T10:06:37.097Z,20.90
2023-04-11T10:07:37.065Z,20.22
2023-04-11T10:08:37.060Z,19.43
2023-04-11T10:09:37.038Z,18.91
2023-04-11T10:10:37.175Z,18.51
2023-04-11T10:11:38.031Z,18.20
2023-04-11T10:12:36.994Z,17.98
2023-04-11T10:13:36.981Z,17.55
2023-04-11T10:14:36.970Z,17.22
2023-04-11T10:15:36.979Z,17.03
2023-04-11T10:16:36.975Z,16.87
2023-04-11T10:17:37.001Z,16.59
2023-04-11T10:18:36.916Z,16.36
2023-04-11T10:19:36.900Z,16.25
2023-04-11T10:20:36.905Z,16.88
2023-04-11T10:21:36.847Z,16.57
2023-04-11T10:22:36.824Z,17.58
2023-04-11T10:23:36.804Z,18.87
2023-04-11T10:24:36.851Z,19.95
2023-04-11T10:25:36.837Z,19.23
2023-04-11T10:26:36.769Z,20.23
2023-04-11T10:27:36.739Z,20.64
2023-04-11T10:28:36.741Z,19.90
2023-04-11T10:29:36.707Z,19.31
2023-04-11T10:30:36.730Z,18.93
2023-04-11T10:31:36.774Z,18.46
2023-04-11T10:32:36.689Z,17.95
2023-04-11T10:33:36.724Z,18.71
2023-04-11T10:34:36.636Z,19.71
2023-04-11T10:35:36.636Z,20.15
2023-04-11T10:36:36.626Z,20.75
2023-04-11T10:37:36.603Z,21.01
2023-04-11T10:38:36.578Z,21.27
2023-04-11T10:39:36.560Z,21.90
2023-04-11T10:40:36.524Z,22.19
2023-04-11T10:41:36.546Z,22.24
2023-04-11T10:42:36.530Z,21.67
2023-04-11T10:43:39.071Z,20.60
2023-04-11T10:44:37.509Z,19.50
2023-04-11T10:45:36.464Z,19.39
2023-04-11T10:46:36.540Z,20.01
2023-04-11T10:47:36.445Z,20.75
2023-04-11T10:48:36.493Z,21.09
2023-04-11T10:49:36.420Z,21.06
2023-04-11T10:50:36.396Z,21.15
2023-04-11T10:51:36.363Z,21.36
2023-04-11T10:52:36.344Z,21.48
2023-04-11T10:53:36.369Z,21.09
2023-04-11T10:54:36.324Z,21.08
2023-04-11T10:55:36.324Z,20.79
2023-04-11T10:56:36.271Z,20.64
2023-04-11T10:57:36.269Z,20.07
2023-04-11T10:58:36.247Z,19.80
2023-04-11T10:59:36.239Z,19.53
2023-04-11T11:00:36.263Z,19.27
2023-04-11T11:01:42.954Z,18.82
2023-04-11T11:02:38.517Z,18.49
2023-04-11T11:03:36.253Z,18.64
2023-04-11T11:04:36.233Z,18.47
2023-04-11T11:05:36.170Z,18.36
2023-04-11T11:06:46.178Z,18.21
2023-04-11T11:07:38.111Z,18.17
2023-04-11T11:08:36.085Z,17.99
2023-04-11T11:09:36.068Z,18.10
2023-04-11T11:10:36.126Z,17.86
2023-04-11T11:11:36.055Z,17.74
2023-04-11T11:12:36.029Z,17.60
2023-04-11T11:13:36.042Z,17.57
2023-04-11T11:14:36.018Z,17.40
2023-04-11T11:15:36.084Z,17.02
2023-04-11T11:16:35.985Z,16.73
2023-04-11T11:17:35.971Z,16.65
2023-04-11T11:18:35.927Z,16.77
2023-04-11T11:19:35.928Z,16.85
2023-04-11T11:20:35.919Z,16.84
2023-04-11T11:21:35.903Z,16.81
2023-04-11T11:22:35.844Z,17.18
2023-04-11T11:23:36.480Z,17.07
2023-04-11T11:24:35.859Z,17.09
2023-04-11T11:25:35.893Z,16.88
2023-04-11T11:26:35.810Z,16.95
2023-04-11T11:27:35.769Z,16.78
2023-04-11T11:28:35.798Z,16.81
2023-04-11T11:29:35.735Z,16.72
2023-04-11T11:30:35.732Z,16.65
2023-04-11T11:31:35.780Z,16.48
2023-04-11T11:32:35.703Z,16.52
2023-04-11T11:33:35.972Z,16.60
2023-04-11T11:34:35.663Z,16.57
2023-04-11T11:35:35.628Z,16.34
2023-04-11T11:36:35.698Z,16.30
2023-04-11T11:37:35.605Z,16.22
2023-04-11T11:38:35.589Z,16.08
2023-04-11T11:39:35.630Z,16.10
2023-04-11T11:40:35.540Z,16.01
2023-04-11T11:41:35.560Z,15.95
2023-04-11T11:42:35.504Z,15.93
2023-04-11T11:43:35.483Z,15.86
2023-04-11T11:44:35.479Z,15.93
2023-04-11T11:45:35.471Z,15.93
2023-04-11T11:46:35.500Z,15.86
2023-04-11T11:47:35.450Z,15.78
2023-04-11T11:48:35.404Z,15.78
2023-04-11T11:49:35.403Z,15.78
2023-04-11T11:50:35.371Z,15.81
2023-04-11T11:51:35.405Z,15.62
2023-04-11T11:52:35.346Z,15.34
2023-04-11T11:53:35.325Z,15.13
2023-04-11T11:54:35.306Z,15.00
2023-04-11T11:55:35.377Z,14.91
2023-04-11T11:56:35.294Z,14.82
2023-04-11T11:57:35.271Z,14.82
2023-04-11T11:58:35.234Z,14.63
2023-04-11T11:59:35.247Z,14.74
2023-04-11T12:00:35.234Z,14.74
2023-04-11T12:01:35.244Z,14.86
2023-04-11T12:02:35.309Z,14.80
2023-04-11T12:03:35.309Z,14.74
2023-04-11T12:04:35.265Z,14.56
2023-04-11T12:05:35.202Z,14.52
2023-04-11T12:06:35.154Z,14.53
2023-04-11T12:07:35.095Z,14.48
2023-04-11T12:08:35.078Z,14.49
2023-04-11T12:09:35.068Z,14.49
2023-04-11T12:10:35.033Z,14.46
2023-04-11T12:11:35.150Z,14.36
2023-04-11T12:12:35.003Z,14.26
2023-04-11T12:13:34.990Z,14.16
2023-04-11T12:14:34.987Z,14.08
2023-04-11T12:15:34.984Z,14.16
2023-04-11T12:16:35.002Z,14.27
2023-04-11T12:17:36.290Z,14.34
2023-04-11T12:18:35.908Z,14.44
2023-04-11T12:19:34.924Z,14.46
2023-04-11T12:20:34.876Z,14.64
2023-04-11T12:21:34.873Z,14.80
2023-04-11T12:22:34.848Z,14.79
2023-04-11T12:23:34.816Z,14.86
2023-04-11T12:24:34.803Z,14.90
2023-04-11T12:25:34.784Z,14.85
2023-04-11T12:26:34.924Z,14.98
2023-04-11T12:27:34.771Z,14.90
2023-04-11T12:28:34.756Z,15.03
2023-04-11T12:29:34.722Z,15.11
2023-04-11T12:30:34.710Z,15.18
2023-04-11T12:31:34.765Z,15.30
2023-04-11T12:32:34.692Z,15.46
2023-04-11T12:33:34.663Z,15.34
2023-04-11T12:34:34.652Z,15.25
2023-04-11T12:35:34.687Z,15.35
2023-04-11T12:36:34.659Z,15.38
2023-04-11T12:37:34.599Z,15.40
2023-04-11T12:38:34.568Z,15.41
2023-04-11T12:39:34.594Z,15.37
2023-04-11T12:40:34.543Z,15.31
2023-04-11T12:41:34.557Z,15.38
2023-04-11T12:42:39.056Z,15.46
2023-04-11T12:43:36.812Z,15.46
2023-04-11T12:44:34.477Z,15.41
2023-04-11T12:45:34.531Z,15.34
2023-04-11T12:46:34.501Z,15.43
2023-04-11T12:47:34.453Z,15.12
2023-04-11T12:48:34.405Z,15.00
2023-04-11T12:49:34.387Z,14.79
2023-04-11T12:50:34.379Z,14.80
2023-04-11T12:51:34.397Z,14.78
2023-04-11T12:52:34.354Z,14.69
2023-04-11T12:53:34.323Z,14.64
2023-04-11T12:54:34.316Z,14.79
2023-04-11T12:55:35.068Z,14.75
2023-04-11T12:56:34.349Z,14.64
2023-04-11T12:57:34.261Z,14.57
2023-04-11T12:58:34.244Z,14.59
2023-04-11T12:59:34.233Z,14.46
2023-04-11T13:00:34.204Z,14.36
2023-04-11T13:01:34.283Z,14.35
2023-04-11T13:02:42.290Z,14.20
2023-04-11T13:03:36.280Z,14.08
2023-04-11T13:04:34.206Z,14.06